sensor_id;sensor_type;location;lat;lon;timestamp;P1;durP1;ratioP1;P2;durP2;ratioP2
13943;SDS011;7044;53.286;8.534;2023-03-01T00:00:54;5.13;;;3.30;;
13943;SDS011;7044;53.286;8.534;2023-03-01T00:03:26;6.83;;;2.90;;
13943;SDS011;7044;53.286;8.534;2023-03-01T00:05:53;7.37;;;3.63;;
13943;SDS011;7044;53.286;8.534;2023-03-01T00:08:20;5.07;;;3.07;;
13943;SDS011;7044;53.286;8.534;2023-03-01T00:10:46;4.40;;;3.13;;
13943;SDS011;7044;53.286;8.534;2023-03-01T00:13:13;5.13;;;3.40;;
13943;SDS011;7044;53.286;8.534;2023-03-01T00:15:40;5.57;;;3.20;;
13943;SDS011;7044;53.286;8.534;2023-03-01T00:18:10;5.47;;;3.80;;
13943;SDS011;7044;53.286;8.534;2023-03-01T00:20:36;5.93;;;3.47;;
13943;SDS011;7044;53.286;8.534;2023-03-01T00:23:03;5.03;;;3.10;;
13943;SDS011;7044;53.286;8.534;2023-03-01T00:25:30;5.30;;;2.97;;
13943;SDS011;7044;53.286;8.534;2023-03-01T00:27:57;5.13;;;2.83;;
13943;SDS011;7044;53.286;8.534;2023-03-01T00:30:23;6.43;;;3.23;;
13943;SDS011;7044;53.286;8.534;2023-03-01T00:32:50;5.10;;;3.23;;
13943;SDS011;7044;53.286;8.534;2023-03-01T00:35:18;6.10;;;2.93;;
13943;SDS011;7044;53.286;8.534;2023-03-01T00:37:45;4.73;;;2.90;;
13943;SDS011;7044;53.286;8.534;2023-03-01T00:40:12;4.33;;;3.17;;
13943;SDS011;7044;53.286;8.534;2023-03-01T00:42:41;5.60;;;3.23;;
13943;SDS011;7044;53.286;8.534;2023-03-01T00:45:08;4.97;;;2.83;;
13943;SDS011;7044;53.286;8.534;2023-03-01T00:47:35;4.33;;;2.83;;
13943;SDS011;7044;53.286;8.534;2023-03-01T00:50:02;3.60;;;2.80;;
13943;SDS011;7044;53.286;8.534;2023-03-01T00:52:31;4.57;;;2.60;;
13943;SDS011;7044;53.286;8.534;2023-03-01T00:54:57;4.73;;;3.07;;
13943;SDS011;7044;53.286;8.534;2023-03-01T00:57:24;4.43;;;2.87;;
13943;SDS011;7044;53.286;8.534;2023-03-01T00:59:51;4.77;;;3.00;;
13943;SDS011;7044;53.286;8.534;2023-03-01T01:02:18;7.57;;;3.57;;
13943;SDS011;7044;53.286;8.534;2023-03-01T01:04:45;5.40;;;3.57;;
13943;SDS011;7044;53.286;8.534;2023-03-01T01:07:12;6.50;;;3.97;;
13943;SDS011;7044;53.286;8.534;2023-03-01T01:09:40;6.27;;;4.03;;
13943;SDS011;7044;53.286;8.534;2023-03-01T01:12:07;8.63;;;4.00;;
13943;SDS011;7044;53.286;8.534;2023-03-01T01:14:34;5.57;;;3.43;;
13943;SDS011;7044;53.286;8.534;2023-03-01T01:17:01;8.40;;;4.07;;
13943;SDS011;7044;53.286;8.534;2023-03-01T01:19:28;5.53;;;3.40;;
13943;SDS011;7044;53.286;8.534;2023-03-01T01:21:55;4.73;;;3.20;;
13943;SDS011;7044;53.286;8.534;2023-03-01T01:24:22;7.27;;;3.97;;
13943;SDS011;7044;53.286;8.534;2023-03-01T01:26:50;4.23;;;2.93;;
13943;SDS011;7044;53.286;8.534;2023-03-01T01:29:17;5.60;;;3.53;;
13943;SDS011;7044;53.286;8.534;2023-03-01T01:31:44;7.60;;;3.60;;
13943;SDS011;7044;53.286;8.534;2023-03-01T01:34:13;5.13;;;3.37;;
13943;SDS011;7044;53.286;8.534;2023-03-01T01:36:41;5.63;;;3.20;;
13943;SDS011;7044;53.286;8.534;2023-03-01T01:39:08;5.53;;;3.70;;
13943;SDS011;7044;53.286;8.534;2023-03-01T01:41:38;8.77;;;3.80;;
13943;SDS011;7044;53.286;8.534;2023-03-01T01:44:12;5.20;;;3.70;;
13943;SDS011;7044;53.286;8.534;2023-03-01T01:46:41;7.73;;;4.60;;
13943;SDS011;7044;53.286;8.534;2023-03-01T01:49:12;5.60;;;3.80;;
13943;SDS011;7044;53.286;8.534;2023-03-01T01:51:45;8.73;;;4.23;;
13943;SDS011;7044;53.286;8.534;2023-03-01T01:54:15;5.80;;;4.10;;
13943;SDS011;7044;53.286;8.534;2023-03-01T01:56:47;8.47;;;3.50;;
13943;SDS011;7044;53.286;8.534;2023-03-01T01:59:19;10.37;;;4.27;;
13943;SDS011;7044;53.286;8.534;2023-03-01T02:01:49;6.20;;;3.70;;
13943;SDS011;7044;53.286;8.534;2023-03-01T02:04:16;6.13;;;4.20;;
13943;SDS011;7044;53.286;8.534;2023-03-01T02:06:44;7.10;;;4.17;;
13943;SDS011;7044;53.286;8.534;2023-03-01T02:09:17;8.20;;;4.03;;
13943;SDS011;7044;53.286;8.534;2023-03-01T02:11:46;6.87;;;3.60;;
13943;SDS011;7044;53.286;8.534;2023-03-01T02:14:14;7.30;;;4.07;;
13943;SDS011;7044;53.286;8.534;2023-03-01T02:16:43;6.17;;;4.17;;
13943;SDS011;7044;53.286;8.534;2023-03-01T02:19:13;6.60;;;4.07;;
13943;SDS011;7044;53.286;8.534;2023-03-01T02:21:52;5.03;;;3.67;;
13943;SDS011;7044;53.286;8.534;2023-03-01T02:24:28;6.23;;;4.27;;
13943;SDS011;7044;53.286;8.534;2023-03-01T02:27:03;7.00;;;4.57;;
13943;SDS011;7044;53.286;8.534;2023-03-01T02:29:31;6.50;;;4.37;;
13943;SDS011;7044;53.286;8.534;2023-03-01T02:31:59;5.93;;;4.37;;
13943;SDS011;7044;53.286;8.534;2023-03-01T02:34:27;10.33;;;4.43;;
13943;SDS011;7044;53.286;8.534;2023-03-01T02:36:57;5.87;;;4.00;;
13943;SDS011;7044;53.286;8.534;2023-03-01T02:39:26;9.30;;;4.33;;
13943;SDS011;7044;53.286;8.534;2023-03-01T02:41:56;8.77;;;4.30;;
13943;SDS011;7044;53.286;8.534;2023-03-01T02:44:23;5.77;;;3.87;;
13943;SDS011;7044;53.286;8.534;2023-03-01T02:46:52;7.50;;;4.17;;
13943;SDS011;7044;53.286;8.534;2023-03-01T02:49:23;6.23;;;4.23;;
13943;SDS011;7044;53.286;8.534;2023-03-01T02:54:56;5.37;;;3.90;;
13943;SDS011;7044;53.286;8.534;2023-03-01T02:57:27;6.30;;;3.63;;
13943;SDS011;7044;53.286;8.534;2023-03-01T02:59:56;9.47;;;4.00;;
13943;SDS011;7044;53.286;8.534;2023-03-01T03:02:27;4.93;;;3.80;;
13943;SDS011;7044;53.286;8.534;2023-03-01T03:05:03;4.40;;;3.63;;
13943;SDS011;7044;53.286;8.534;2023-03-01T03:07:33;7.97;;;3.80;;
13943;SDS011;7044;53.286;8.534;2023-03-01T03:10:00;5.13;;;3.73;;
13943;SDS011;7044;53.286;8.534;2023-03-01T03:12:28;4.57;;;3.13;;
13943;SDS011;7044;53.286;8.534;2023-03-01T03:14:54;7.00;;;4.07;;
13943;SDS011;7044;53.286;8.534;2023-03-01T03:17:21;6.87;;;3.77;;
13943;SDS011;7044;53.286;8.534;2023-03-01T03:19:49;7.67;;;3.40;;
13943;SDS011;7044;53.286;8.534;2023-03-01T03:22:16;5.63;;;4.13;;
13943;SDS011;7044;53.286;8.534;2023-03-01T03:24:43;5.50;;;3.50;;
13943;SDS011;7044;53.286;8.534;2023-03-01T03:27:10;5.90;;;3.87;;
13943;SDS011;7044;53.286;8.534;2023-03-01T03:29:37;4.07;;;2.83;;
13943;SDS011;7044;53.286;8.534;2023-03-01T03:32:04;6.10;;;3.27;;
13943;SDS011;7044;53.286;8.534;2023-03-01T03:34:30;3.90;;;2.93;;
13943;SDS011;7044;53.286;8.534;2023-03-01T03:36:58;4.53;;;3.07;;
13943;SDS011;7044;53.286;8.534;2023-03-01T03:39:26;4.53;;;3.13;;
13943;SDS011;7044;53.286;8.534;2023-03-01T03:41:53;3.57;;;2.80;;
13943;SDS011;7044;53.286;8.534;2023-03-01T03:44:20;4.77;;;2.97;;
13943;SDS011;7044;53.286;8.534;2023-03-01T03:46:47;6.30;;;3.33;;
13943;SDS011;7044;53.286;8.534;2023-03-01T03:49:14;3.87;;;2.93;;
13943;SDS011;7044;53.286;8.534;2023-03-01T03:51:41;5.47;;;3.07;;
13943;SDS011;7044;53.286;8.534;2023-03-01T03:54:09;4.83;;;3.40;;
13943;SDS011;7044;53.286;8.534;2023-03-01T03:56:36;4.60;;;3.17;;
13943;SDS011;7044;53.286;8.534;2023-03-01T03:59:02;11.47;;;3.60;;
13943;SDS011;7044;53.286;8.534;2023-03-01T04:01:30;5.30;;;3.60;;
13943;SDS011;7044;53.286;8.534;2023-03-01T04:03:57;3.93;;;3.37;;
13943;SDS011;7044;53.286;8.534;2023-03-01T04:06:29;6.37;;;3.50;;
13943;SDS011;7044;53.286;8.534;2023-03-01T04:08:56;6.50;;;3.40;;
13943;SDS011;7044;53.286;8.534;2023-03-01T04:11:28;4.73;;;3.60;;
13943;SDS011;7044;53.286;8.534;2023-03-01T04:13:56;6.40;;;3.40;;
13943;SDS011;7044;53.286;8.534;2023-03-01T04:16:25;4.30;;;3.30;;
13943;SDS011;7044;53.286;8.534;2023-03-01T04:18:52;6.33;;;3.87;;
13943;SDS011;7044;53.286;8.534;2023-03-01T04:21:19;5.60;;;3.20;;
13943;SDS011;7044;53.286;8.534;2023-03-01T04:23:46;5.37;;;3.73;;
13943;SDS011;7044;53.286;8.534;2023-03-01T04:26:17;5.17;;;3.53;;
13943;SDS011;7044;53.286;8.534;2023-03-01T04:28:45;5.30;;;3.33;;
13943;SDS011;7044;53.286;8.534;2023-03-01T04:31:15;5.47;;;3.20;;
13943;SDS011;7044;53.286;8.534;2023-03-01T04:33:46;4.07;;;3.10;;
13943;SDS011;7044;53.286;8.534;2023-03-01T04:36:16;4.50;;;3.30;;
13943;SDS011;7044;53.286;8.534;2023-03-01T04:38:44;7.07;;;3.87;;
13943;SDS011;7044;53.286;8.534;2023-03-01T04:41:13;5.73;;;3.73;;
13943;SDS011;7044;53.286;8.534;2023-03-01T04:43:41;7.57;;;2.90;;
13943;SDS011;7044;53.286;8.534;2023-03-01T04:46:10;7.00;;;3.37;;
13943;SDS011;7044;53.286;8.534;2023-03-01T04:48:39;6.20;;;3.93;;
13943;SDS011;7044;53.286;8.534;2023-03-01T04:51:07;8.63;;;4.03;;
13943;SDS011;7044;53.286;8.534;2023-03-01T04:53:34;7.20;;;3.77;;
13943;SDS011;7044;53.286;8.534;2023-03-01T04:56:02;3.63;;;3.10;;
13943;SDS011;7044;53.286;8.534;2023-03-01T04:58:29;4.73;;;2.97;;
13943;SDS011;7044;53.286;8.534;2023-03-01T05:00:56;4.77;;;3.23;;
13943;SDS011;7044;53.286;8.534;2023-03-01T05:03:24;4.27;;;3.33;;
13943;SDS011;7044;53.286;8.534;2023-03-01T05:05:51;3.80;;;2.97;;
13943;SDS011;7044;53.286;8.534;2023-03-01T05:08:18;3.03;;;2.33;;
13943;SDS011;7044;53.286;8.534;2023-03-01T05:10:47;5.97;;;3.00;;
13943;SDS011;7044;53.286;8.534;2023-03-01T05:13:15;4.43;;;2.97;;
13943;SDS011;7044;53.286;8.534;2023-03-01T05:15:46;4.80;;;2.63;;
13943;SDS011;7044;53.286;8.534;2023-03-01T05:18:13;4.47;;;2.70;;
13943;SDS011;7044;53.286;8.534;2023-03-01T05:20:41;4.20;;;2.53;;
13943;SDS011;7044;53.286;8.534;2023-03-01T05:23:09;3.27;;;2.40;;
13943;SDS011;7044;53.286;8.534;2023-03-01T05:25:36;5.23;;;3.17;;
13943;SDS011;7044;53.286;8.534;2023-03-01T05:28:05;4.07;;;2.67;;
13943;SDS011;7044;53.286;8.534;2023-03-01T05:30:34;4.10;;;2.47;;
13943;SDS011;7044;53.286;8.534;2023-03-01T05:33:04;3.93;;;3.30;;
13943;SDS011;7044;53.286;8.534;2023-03-01T05:35:35;3.60;;;2.80;;
13943;SDS011;7044;53.286;8.534;2023-03-01T05:38:04;3.43;;;2.50;;
13943;SDS011;7044;53.286;8.534;2023-03-01T05:40:32;6.63;;;3.40;;
13943;SDS011;7044;53.286;8.534;2023-03-01T05:42:59;4.03;;;3.00;;
13943;SDS011;7044;53.286;8.534;2023-03-01T05:45:27;5.40;;;3.07;;
13943;SDS011;7044;53.286;8.534;2023-03-01T05:47:54;6.80;;;4.57;;
13943;SDS011;7044;53.286;8.534;2023-03-01T05:50:21;6.60;;;4.10;;
13943;SDS011;7044;53.286;8.534;2023-03-01T05:52:51;8.73;;;3.30;;
13943;SDS011;7044;53.286;8.534;2023-03-01T05:55:23;5.53;;;3.27;;
13943;SDS011;7044;53.286;8.534;2023-03-01T05:57:50;6.17;;;4.57;;
13943;SDS011;7044;53.286;8.534;2023-03-01T06:00:18;6.00;;;3.63;;
13943;SDS011;7044;53.286;8.534;2023-03-01T06:02:47;6.80;;;3.83;;
13943;SDS011;7044;53.286;8.534;2023-03-01T06:05:14;4.70;;;3.50;;
13943;SDS011;7044;53.286;8.534;2023-03-01T06:07:41;6.90;;;3.77;;
13943;SDS011;7044;53.286;8.534;2023-03-01T06:10:09;4.03;;;3.20;;
13943;SDS011;7044;53.286;8.534;2023-03-01T06:12:39;6.30;;;3.37;;
13943;SDS011;7044;53.286;8.534;2023-03-01T06:15:08;5.67;;;3.50;;
13943;SDS011;7044;53.286;8.534;2023-03-01T06:17:37;5.43;;;3.07;;
13943;SDS011;7044;53.286;8.534;2023-03-01T06:20:06;6.13;;;3.93;;
13943;SDS011;7044;53.286;8.534;2023-03-01T06:22:35;4.90;;;3.50;;
13943;SDS011;7044;53.286;8.534;2023-03-01T06:25:02;6.33;;;4.37;;
13943;SDS011;7044;53.286;8.534;2023-03-01T06:27:29;5.83;;;3.43;;
13943;SDS011;7044;53.286;8.534;2023-03-01T06:29:58;3.57;;;2.60;;
13943;SDS011;7044;53.286;8.534;2023-03-01T06:32:25;8.60;;;2.77;;
13943;SDS011;7044;53.286;8.534;2023-03-01T06:34:51;4.80;;;3.47;;
13943;SDS011;7044;53.286;8.534;2023-03-01T06:37:18;11.13;;;3.27;;
13943;SDS011;7044;53.286;8.534;2023-03-01T06:39:45;4.60;;;3.20;;
13943;SDS011;7044;53.286;8.534;2023-03-01T06:42:12;4.07;;;2.83;;
13943;SDS011;7044;53.286;8.534;2023-03-01T06:44:38;3.63;;;2.90;;
13943;SDS011;7044;53.286;8.534;2023-03-01T06:47:08;4.10;;;3.10;;
13943;SDS011;7044;53.286;8.534;2023-03-01T06:49:34;6.70;;;3.00;;
13943;SDS011;7044;53.286;8.534;2023-03-01T06:52:01;4.97;;;3.30;;
13943;SDS011;7044;53.286;8.534;2023-03-01T06:54:28;7.50;;;3.90;;
13943;SDS011;7044;53.286;8.534;2023-03-01T06:56:55;11.33;;;3.80;;
13943;SDS011;7044;53.286;8.534;2023-03-01T06:59:22;10.93;;;3.77;;
13943;SDS011;7044;53.286;8.534;2023-03-01T07:01:48;10.63;;;5.00;;
13943;SDS011;7044;53.286;8.534;2023-03-01T07:04:17;13.88;;;7.10;;
13943;SDS011;7044;53.286;8.534;2023-03-01T07:06:43;8.67;;;5.17;;
13943;SDS011;7044;53.286;8.534;2023-03-01T07:09:10;11.10;;;5.27;;
13943;SDS011;7044;53.286;8.534;2023-03-01T07:11:37;6.50;;;4.80;;
13943;SDS011;7044;53.286;8.534;2023-03-01T07:14:04;8.40;;;4.77;;
13943;SDS011;7044;53.286;8.534;2023-03-01T07:16:31;7.33;;;4.77;;
13943;SDS011;7044;53.286;8.534;2023-03-01T07:18:58;8.97;;;5.13;;
13943;SDS011;7044;53.286;8.534;2023-03-01T07:21:26;8.37;;;5.10;;
13943;SDS011;7044;53.286;8.534;2023-03-01T07:23:53;7.40;;;4.87;;
13943;SDS011;7044;53.286;8.534;2023-03-01T07:26:20;11.00;;;5.37;;
13943;SDS011;7044;53.286;8.534;2023-03-01T07:28:47;107.93;;;43.53;;
13943;SDS011;7044;53.286;8.534;2023-03-01T07:31:13;61.27;;;26.47;;
13943;SDS011;7044;53.286;8.534;2023-03-01T07:33:40;116.93;;;36.50;;
13943;SDS011;7044;53.286;8.534;2023-03-01T07:36:08;103.73;;;28.50;;
13943;SDS011;7044;53.286;8.534;2023-03-01T07:38:37;34.70;;;12.40;;
13943;SDS011;7044;53.286;8.534;2023-03-01T07:41:03;29.00;;;8.20;;
13943;SDS011;7044;53.286;8.534;2023-03-01T07:43:31;13.40;;;5.67;;
13943;SDS011;7044;53.286;8.534;2023-03-01T07:45:59;11.47;;;5.20;;
13943;SDS011;7044;53.286;8.534;2023-03-01T07:48:26;6.30;;;4.10;;
13943;SDS011;7044;53.286;8.534;2023-03-01T07:50:53;5.30;;;3.03;;
13943;SDS011;7044;53.286;8.534;2023-03-01T07:53:20;7.93;;;4.33;;
13943;SDS011;7044;53.286;8.534;2023-03-01T07:55:48;9.10;;;4.80;;
13943;SDS011;7044;53.286;8.534;2023-03-01T07:58:15;44.03;;;15.43;;
13943;SDS011;7044;53.286;8.534;2023-03-01T08:00:41;33.00;;;11.27;;
13943;SDS011;7044;53.286;8.534;2023-03-01T08:03:08;12.53;;;4.67;;
13943;SDS011;7044;53.286;8.534;2023-03-01T08:05:35;8.70;;;4.30;;
13943;SDS011;7044;53.286;8.534;2023-03-01T08:08:02;5.13;;;3.50;;
13943;SDS011;7044;53.286;8.534;2023-03-01T08:10:30;10.43;;;6.30;;
13943;SDS011;7044;53.286;8.534;2023-03-01T08:12:58;9.77;;;5.90;;
13943;SDS011;7044;53.286;8.534;2023-03-01T08:15:25;7.80;;;4.67;;
13943;SDS011;7044;53.286;8.534;2023-03-01T08:17:51;7.23;;;5.10;;
13943;SDS011;7044;53.286;8.534;2023-03-01T08:20:18;7.67;;;4.53;;
13943;SDS011;7044;53.286;8.534;2023-03-01T08:22:45;6.70;;;4.47;;
13943;SDS011;7044;53.286;8.534;2023-03-01T08:25:12;7.20;;;4.40;;
13943;SDS011;7044;53.286;8.534;2023-03-01T08:27:39;8.77;;;4.90;;
13943;SDS011;7044;53.286;8.534;2023-03-01T08:30:08;11.27;;;5.30;;
13943;SDS011;7044;53.286;8.534;2023-03-01T08:32:36;7.60;;;5.30;;
13943;SDS011;7044;53.286;8.534;2023-03-01T08:35:04;10.77;;;5.63;;
13943;SDS011;7044;53.286;8.534;2023-03-01T08:37:31;7.13;;;5.10;;
13943;SDS011;7044;53.286;8.534;2023-03-01T08:39:58;8.20;;;5.00;;
13943;SDS011;7044;53.286;8.534;2023-03-01T08:42:25;8.10;;;5.10;;
13943;SDS011;7044;53.286;8.534;2023-03-01T08:44:52;12.87;;;5.40;;
13943;SDS011;7044;53.286;8.534;2023-03-01T08:47:20;11.83;;;5.93;;
13943;SDS011;7044;53.286;8.534;2023-03-01T08:49:48;10.97;;;5.20;;
13943;SDS011;7044;53.286;8.534;2023-03-01T08:52:15;7.33;;;4.97;;
13943;SDS011;7044;53.286;8.534;2023-03-01T08:54:42;7.00;;;5.13;;
13943;SDS011;7044;53.286;8.534;2023-03-01T08:57:09;6.43;;;5.07;;
13943;SDS011;7044;53.286;8.534;2023-03-01T08:59:36;6.27;;;5.33;;
13943;SDS011;7044;53.286;8.534;2023-03-01T09:02:03;16.40;;;5.33;;
13943;SDS011;7044;53.286;8.534;2023-03-01T09:04:31;9.10;;;5.47;;
13943;SDS011;7044;53.286;8.534;2023-03-01T09:06:58;9.63;;;6.20;;
13943;SDS011;7044;53.286;8.534;2023-03-01T09:09:25;10.00;;;6.40;;
13943;SDS011;7044;53.286;8.534;2023-03-01T09:11:52;11.43;;;6.50;;
13943;SDS011;7044;53.286;8.534;2023-03-01T09:14:19;10.43;;;6.03;;
13943;SDS011;7044;53.286;8.534;2023-03-01T09:16:45;8.37;;;5.60;;
13943;SDS011;7044;53.286;8.534;2023-03-01T09:19:12;8.37;;;5.50;;
13943;SDS011;7044;53.286;8.534;2023-03-01T09:21:41;8.77;;;5.83;;
13943;SDS011;7044;53.286;8.534;2023-03-01T09:24:19;9.20;;;6.07;;
13943;SDS011;7044;53.286;8.534;2023-03-01T09:26:47;12.70;;;6.13;;
13943;SDS011;7044;53.286;8.534;2023-03-01T09:29:14;13.40;;;5.97;;
13943;SDS011;7044;53.286;8.534;2023-03-01T09:31:41;8.17;;;5.97;;
13943;SDS011;7044;53.286;8.534;2023-03-01T09:34:08;7.97;;;6.00;;
13943;SDS011;7044;53.286;8.534;2023-03-01T09:36:36;6.70;;;5.43;;
13943;SDS011;7044;53.286;8.534;2023-03-01T09:39:04;11.80;;;6.60;;
13943;SDS011;7044;53.286;8.534;2023-03-01T09:41:38;8.70;;;6.43;;
13943;SDS011;7044;53.286;8.534;2023-03-01T09:44:20;11.07;;;6.50;;
13943;SDS011;7044;53.286;8.534;2023-03-01T09:46:52;12.33;;;6.97;;
13943;SDS011;7044;53.286;8.534;2023-03-01T09:49:19;11.57;;;7.57;;
13943;SDS011;7044;53.286;8.534;2023-03-01T09:51:54;10.50;;;7.23;;
13943;SDS011;7044;53.286;8.534;2023-03-01T09:54:24;20.87;;;7.67;;
13943;SDS011;7044;53.286;8.534;2023-03-01T09:56:54;9.00;;;6.67;;
13943;SDS011;7044;53.286;8.534;2023-03-01T09:59:33;12.63;;;7.60;;
13943;SDS011;7044;53.286;8.534;2023-03-01T10:02:11;16.07;;;7.50;;
13943;SDS011;7044;53.286;8.534;2023-03-01T10:04:50;10.80;;;6.80;;
13943;SDS011;7044;53.286;8.534;2023-03-01T10:07:21;10.70;;;6.33;;
13943;SDS011;7044;53.286;8.534;2023-03-01T10:09:57;12.90;;;7.27;;
13943;SDS011;7044;53.286;8.534;2023-03-01T10:12:26;8.83;;;6.73;;
13943;SDS011;7044;53.286;8.534;2023-03-01T10:14:57;13.17;;;7.57;;
13943;SDS011;7044;53.286;8.534;2023-03-01T10:17:30;13.23;;;7.90;;
13943;SDS011;7044;53.286;8.534;2023-03-01T10:22:45;12.83;;;7.77;;
13943;SDS011;7044;53.286;8.534;2023-03-01T10:25:17;15.37;;;8.10;;
13943;SDS011;7044;53.286;8.534;2023-03-01T10:27:54;12.83;;;8.00;;
13943;SDS011;7044;53.286;8.534;2023-03-01T10:30:30;14.13;;;7.70;;
13943;SDS011;7044;53.286;8.534;2023-03-01T10:33:13;15.87;;;8.50;;
13943;SDS011;7044;53.286;8.534;2023-03-01T10:35:43;15.57;;;8.43;;
13943;SDS011;7044;53.286;8.534;2023-03-01T10:38:11;16.77;;;8.50;;
13943;SDS011;7044;53.286;8.534;2023-03-01T10:40:50;15.60;;;8.87;;
13943;SDS011;7044;53.286;8.534;2023-03-01T10:43:19;16.87;;;9.27;;
13943;SDS011;7044;53.286;8.534;2023-03-01T10:45:47;14.17;;;9.03;;
13943;SDS011;7044;53.286;8.534;2023-03-01T10:48:15;16.17;;;9.20;;
13943;SDS011;7044;53.286;8.534;2023-03-01T10:50:45;14.47;;;8.87;;
13943;SDS011;7044;53.286;8.534;2023-03-01T10:53:20;15.30;;;9.87;;
13943;SDS011;7044;53.286;8.534;2023-03-01T10:55:57;13.30;;;8.97;;
13943;SDS011;7044;53.286;8.534;2023-03-01T10:58:26;15.03;;;9.20;;
13943;SDS011;7044;53.286;8.534;2023-03-01T11:00:55;15.20;;;8.80;;
13943;SDS011;7044;53.286;8.534;2023-03-01T11:03:23;14.03;;;8.53;;
13943;SDS011;7044;53.286;8.534;2023-03-01T11:06:05;16.30;;;9.33;;
13943;SDS011;7044;53.286;8.534;2023-03-01T11:08:46;14.87;;;8.73;;
13943;SDS011;7044;53.286;8.534;2023-03-01T11:13:57;16.37;;;8.67;;
13943;SDS011;7044;53.286;8.534;2023-03-01T11:16:27;13.50;;;8.50;;
13943;SDS011;7044;53.286;8.534;2023-03-01T11:18:58;14.70;;;8.70;;
13943;SDS011;7044;53.286;8.534;2023-03-01T11:21:26;13.97;;;8.60;;
13943;SDS011;7044;53.286;8.534;2023-03-01T11:23:57;13.57;;;9.10;;
13943;SDS011;7044;53.286;8.534;2023-03-01T11:26:28;10.47;;;7.30;;
13943;SDS011;7044;53.286;8.534;2023-03-01T11:28:58;15.77;;;8.80;;
13943;SDS011;7044;53.286;8.534;2023-03-01T11:31:30;12.70;;;7.90;;
13943;SDS011;7044;53.286;8.534;2023-03-01T11:33:59;15.33;;;8.37;;
13943;SDS011;7044;53.286;8.534;2023-03-01T11:36:32;19.23;;;9.33;;
13943;SDS011;7044;53.286;8.534;2023-03-01T11:39:03;13.80;;;8.70;;
13943;SDS011;7044;53.286;8.534;2023-03-01T11:41:38;21.70;;;12.53;;
13943;SDS011;7044;53.286;8.534;2023-03-01T11:44:10;15.43;;;9.63;;
13943;SDS011;7044;53.286;8.534;2023-03-01T11:46:51;13.23;;;8.67;;
13943;SDS011;7044;53.286;8.534;2023-03-01T11:49:36;12.97;;;8.40;;
13943;SDS011;7044;53.286;8.534;2023-03-01T11:52:16;11.57;;;8.47;;
13943;SDS011;7044;53.286;8.534;2023-03-01T11:54:55;11.67;;;8.00;;
13943;SDS011;7044;53.286;8.534;2023-03-01T11:57:48;11.70;;;7.83;;
13943;SDS011;7044;53.286;8.534;2023-03-01T12:00:36;12.33;;;8.83;;
13943;SDS011;7044;53.286;8.534;2023-03-01T12:03:16;13.93;;;8.57;;
13943;SDS011;7044;53.286;8.534;2023-03-01T12:06:06;12.40;;;7.77;;
13943;SDS011;7044;53.286;8.534;2023-03-01T12:09:01;12.60;;;8.80;;
13943;SDS011;7044;53.286;8.534;2023-03-01T12:11:41;14.10;;;8.97;;
13943;SDS011;7044;53.286;8.534;2023-03-01T12:17:30;13.73;;;9.60;;
13943;SDS011;7044;53.286;8.534;2023-03-01T12:20:21;15.50;;;9.13;;
13943;SDS011;7044;53.286;8.534;2023-03-01T12:23:01;14.80;;;9.53;;
13943;SDS011;7044;53.286;8.534;2023-03-01T12:25:45;14.23;;;9.77;;
13943;SDS011;7044;53.286;8.534;2023-03-01T12:28:20;13.37;;;8.67;;
13943;SDS011;7044;53.286;8.534;2023-03-01T12:31:08;13.17;;;8.53;;
13943;SDS011;7044;53.286;8.534;2023-03-01T12:33:57;16.23;;;9.10;;
13943;SDS011;7044;53.286;8.534;2023-03-01T12:36:43;16.63;;;10.33;;
13943;SDS011;7044;53.286;8.534;2023-03-01T12:39:24;15.27;;;9.47;;
13943;SDS011;7044;53.286;8.534;2023-03-01T12:42:04;14.60;;;10.07;;
13943;SDS011;7044;53.286;8.534;2023-03-01T12:44:44;16.00;;;9.27;;
13943;SDS011;7044;53.286;8.534;2023-03-01T12:47:33;15.10;;;10.43;;
13943;SDS011;7044;53.286;8.534;2023-03-01T12:50:11;16.77;;;9.60;;
13943;SDS011;7044;53.286;8.534;2023-03-01T12:52:44;16.00;;;9.87;;
13943;SDS011;7044;53.286;8.534;2023-03-01T12:55:18;15.73;;;10.50;;
13943;SDS011;7044;53.286;8.534;2023-03-01T12:57:54;16.40;;;10.73;;
13943;SDS011;7044;53.286;8.534;2023-03-01T13:00:31;18.93;;;11.40;;
13943;SDS011;7044;53.286;8.534;2023-03-01T13:03:04;17.13;;;11.50;;
13943;SDS011;7044;53.286;8.534;2023-03-01T13:05:42;18.30;;;10.97;;
13943;SDS011;7044;53.286;8.534;2023-03-01T13:08:19;19.53;;;12.97;;
13943;SDS011;7044;53.286;8.534;2023-03-01T13:10:53;16.83;;;12.33;;
13943;SDS011;7044;53.286;8.534;2023-03-01T13:13:25;21.20;;;12.10;;
13943;SDS011;7044;53.286;8.534;2023-03-01T13:15:53;20.03;;;11.47;;
13943;SDS011;7044;53.286;8.534;2023-03-01T13:18:29;18.13;;;12.40;;
13943;SDS011;7044;53.286;8.534;2023-03-01T13:20:57;16.67;;;10.80;;
13943;SDS011;7044;53.286;8.534;2023-03-01T13:23:28;17.20;;;11.43;;
13943;SDS011;7044;53.286;8.534;2023-03-01T13:26:00;18.17;;;12.03;;
13943;SDS011;7044;53.286;8.534;2023-03-01T13:28:46;16.73;;;11.80;;
13943;SDS011;7044;53.286;8.534;2023-03-01T13:37:23;16.93;;;11.40;;
13943;SDS011;7044;53.286;8.534;2023-03-01T13:39:56;19.80;;;12.20;;
13943;SDS011;7044;53.286;8.534;2023-03-01T13:42:37;20.33;;;12.13;;
13943;SDS011;7044;53.286;8.534;2023-03-01T13:45:17;20.70;;;13.03;;
13943;SDS011;7044;53.286;8.534;2023-03-01T13:47:47;19.00;;;11.90;;
13943;SDS011;7044;53.286;8.534;2023-03-01T13:50:20;20.23;;;11.87;;
13943;SDS011;7044;53.286;8.534;2023-03-01T13:52:53;18.40;;;11.60;;
13943;SDS011;7044;53.286;8.534;2023-03-01T13:55:24;15.00;;;11.37;;
13943;SDS011;7044;53.286;8.534;2023-03-01T13:57:59;21.93;;;12.77;;
13943;SDS011;7044;53.286;8.534;2023-03-01T14:00:31;18.47;;;12.53;;
13943;SDS011;7044;53.286;8.534;2023-03-01T14:03:04;19.57;;;12.57;;
13943;SDS011;7044;53.286;8.534;2023-03-01T14:05:37;18.70;;;12.77;;
13943;SDS011;7044;53.286;8.534;2023-03-01T14:08:04;19.07;;;12.63;;
13943;SDS011;7044;53.286;8.534;2023-03-01T14:10:44;16.03;;;11.60;;
13943;SDS011;7044;53.286;8.534;2023-03-01T14:13:26;20.40;;;11.50;;
13943;SDS011;7044;53.286;8.534;2023-03-01T14:16:09;18.80;;;12.27;;
13943;SDS011;7044;53.286;8.534;2023-03-01T14:18:46;20.43;;;13.03;;
13943;SDS011;7044;53.286;8.534;2023-03-01T14:21:21;19.03;;;13.43;;
13943;SDS011;7044;53.286;8.534;2023-03-01T14:23:50;20.60;;;13.00;;
13943;SDS011;7044;53.286;8.534;2023-03-01T14:26:19;16.57;;;12.43;;
13943;SDS011;7044;53.286;8.534;2023-03-01T14:28:47;19.33;;;12.43;;
13943;SDS011;7044;53.286;8.534;2023-03-01T14:34:16;18.53;;;12.53;;
13943;SDS011;7044;53.286;8.534;2023-03-01T14:36:47;20.23;;;12.87;;
13943;SDS011;7044;53.286;8.534;2023-03-01T14:39:17;18.87;;;12.43;;
13943;SDS011;7044;53.286;8.534;2023-03-01T14:41:46;19.33;;;12.00;;
13943;SDS011;7044;53.286;8.534;2023-03-01T14:44:14;22.17;;;13.10;;
13943;SDS011;7044;53.286;8.534;2023-03-01T14:46:45;18.60;;;12.47;;
13943;SDS011;7044;53.286;8.534;2023-03-01T14:49:13;20.73;;;13.20;;
13943;SDS011;7044;53.286;8.534;2023-03-01T14:51:43;16.83;;;11.53;;
13943;SDS011;7044;53.286;8.534;2023-03-01T14:54:21;18.13;;;12.20;;
13943;SDS011;7044;53.286;8.534;2023-03-01T14:56:52;16.37;;;11.23;;
13943;SDS011;7044;53.286;8.534;2023-03-01T14:59:21;17.93;;;12.27;;
13943;SDS011;7044;53.286;8.534;2023-03-01T15:01:49;16.40;;;11.07;;
13943;SDS011;7044;53.286;8.534;2023-03-01T15:04:17;19.57;;;12.07;;
13943;SDS011;7044;53.286;8.534;2023-03-01T15:06:45;20.60;;;12.80;;
13943;SDS011;7044;53.286;8.534;2023-03-01T15:09:15;23.27;;;11.37;;
13943;SDS011;7044;53.286;8.534;2023-03-01T15:11:43;19.53;;;12.93;;
13943;SDS011;7044;53.286;8.534;2023-03-01T15:14:26;18.93;;;11.37;;
13943;SDS011;7044;53.286;8.534;2023-03-01T15:16:54;15.70;;;10.70;;
13943;SDS011;7044;53.286;8.534;2023-03-01T15:19:22;17.90;;;11.00;;
13943;SDS011;7044;53.286;8.534;2023-03-01T15:21:53;18.33;;;11.90;;
13943;SDS011;7044;53.286;8.534;2023-03-01T15:24:24;17.57;;;11.40;;
13943;SDS011;7044;53.286;8.534;2023-03-01T15:26:56;16.80;;;11.57;;
13943;SDS011;7044;53.286;8.534;2023-03-01T15:29:27;17.40;;;12.17;;
13943;SDS011;7044;53.286;8.534;2023-03-01T15:31:56;16.67;;;11.20;;